createdAt,value
2016-12-31T00:00:44.472Z,-5.45
2016-12-31T00:01:44.432Z,-5.57
2016-12-31T00:02:44.762Z,-5.53
2016-12-31T00:03:43.993Z,-5.45
2016-12-31T00:04:44.830Z,-5.63
2016-12-31T00:05:44.004Z,-5.64
2016-12-31T00:06:44.499Z,-5.66
2016-12-31T00:07:44.054Z,-5.82
2016-12-31T00:08:43.885Z,-5.9
2016-12-31T00:09:44.068Z,-5.78
2016-12-31T00:10:45.513Z,-5.82
2016-12-31T00:11:44.652Z,-5.79
2016-12-31T00:12:44.936Z,-5.75
2016-12-31T00:13:44.280Z,-5.75
2016-12-31T00:14:44.318Z,-5.85
2016-12-31T00:15:44.124Z,-5.76
2016-12-31T00:16:44.765Z,-5.93
2016-12-31T00:17:44.080Z,-5.89
2016-12-31T00:18:44.507Z,-5.92
2016-12-31T00:19:44.602Z,-5.99
2016-12-31T00:20:44.801Z,-5.97
2016-12-31T00:21:44.808Z,-5.96
2016-12-31T00:22:44.843Z,-6
2016-12-31T00:23:45.407Z,-6.1
2016-12-31T00:24:44.793Z,-6.18
2016-12-31T00:25:44.396Z,-6.28
2016-12-31T00:26:44.376Z,-6.17
2016-12-31T00:27:45.528Z,-6.18
2016-12-31T00:28:44.147Z,-6.14
2016-12-31T00:29:45.024Z,-6.02
2016-12-31T00:30:44.499Z,-6.1
2016-12-31T00:31:45.111Z,-6.07
2016-12-31T00:32:44.434Z,-5.99
2016-12-31T00:33:44.714Z,-6.11
2016-12-31T00:34:45.032Z,-6.02
2016-12-31T00:35:45.226Z,-5.96
2016-12-31T00:36:44.897Z,-5.95
2016-12-31T00:37:45.026Z,-5.9
2016-12-31T00:38:44.711Z,-5.78
2016-12-31T00:39:44.824Z,-5.81
2016-12-31T00:40:44.462Z,-5.95
2016-12-31T00:41:44.717Z,-5.96
2016-12-31T00:42:45.455Z,-6.07
2016-12-31T00:43:44.874Z,-6.07
2016-12-31T00:44:44.820Z,-6
2016-12-31T00:45:44.550Z,-6.03
2016-12-31T00:46:44.698Z,-6.11
2016-12-31T00:47:44.731Z,-6.1
2016-12-31T00:48:45.668Z,-6.15
2016-12-31T00:49:44.951Z,-6.18
2016-12-31T00:50:45.422Z,-6.2
2016-12-31T00:51:44.713Z,-6.18
2016-12-31T00:52:44.644Z,-6.08
2016-12-31T00:53:45.204Z,-6.13
2016-12-31T00:54:45.207Z,-6.11
2016-12-31T00:55:44.974Z,-6.07
2016-12-31T00:56:45.374Z,-6.11
2016-12-31T00:57:45.396Z,-6.15
2016-12-31T00:58:44.903Z,-6.17
2016-12-31T00:59:45.370Z,-6.23
2016-12-31T01:00:44.940Z,-6.23
2016-12-31T01:01:45.196Z,-6.38
2016-12-31T01:02:45.134Z,-6.54
2016-12-31T01:03:44.796Z,-6.47
2016-12-31T01:04:45.257Z,-6.47
2016-12-31T01:05:45.877Z,-6.63
2016-12-31T01:06:44.746Z,-6.76
2016-12-31T01:07:45.318Z,-6.76
2016-12-31T01:08:44.822Z,-6.79
2016-12-31T01:09:44.687Z,-6.56
2016-12-31T01:10:45.186Z,-6.42
2016-12-31T01:11:45.685Z,-6.36
2016-12-31T01:12:44.684Z,-6.17
2016-12-31T01:13:45.351Z,-5.99
2016-12-31T01:14:44.791Z,-5.86
2016-12-31T01:15:45.304Z,-5.79
2016-12-31T01:16:45.452Z,-5.56
2016-12-31T01:17:45.089Z,-5.54
2016-12-31T01:18:45.630Z,-5.38
2016-12-31T01:19:44.693Z,-5.38
2016-12-31T01:20:45.008Z,-5.24
2016-12-31T01:21:45.240Z,-5.35
2016-12-31T01:22:44.836Z,-5.43
2016-12-31T01:23:45.322Z,-5.57
2016-12-31T01:24:44.972Z,-5.53
2016-12-31T01:25:45.842Z,-5.67
2016-12-31T01:26:45.000Z,-5.63
2016-12-31T01:27:45.669Z,-5.47
2016-12-31T01:28:44.853Z,-5.68
2016-12-31T01:29:45.169Z,-5.68
2016-12-31T01:30:45.941Z,-5.61
2016-12-31T01:31:45.083Z,-5.42
2016-12-31T01:32:44.867Z,-5.29
2016-12-31T01:33:45.449Z,-5.4
2016-12-31T01:34:45.501Z,-5.42
2016-12-31T01:35:46.015Z,-5.47
2016-12-31T01:36:45.270Z,-5.43
2016-12-31T01:37:45.785Z,-5.53
2016-12-31T01:38:46.221Z,-5.71
2016-12-31T01:39:46.194Z,-5.74
2016-12-31T01:40:44.987Z,-5.84
2016-12-31T01:41:45.484Z,-5.85
2016-12-31T01:42:46.076Z,-5.99
2016-12-31T01:43:45.112Z,-5.97
2016-12-31T01:44:44.965Z,-5.92
2016-12-31T01:45:44.986Z,-5.93
2016-12-31T01:46:45.889Z,-5.93
2016-12-31T01:47:46.585Z,-5.81
2016-12-31T01:48:45.054Z,-5.78
2016-12-31T01:49:45.670Z,-5.64
2016-12-31T01:50:45.466Z,-5.71
2016-12-31T01:51:45.962Z,-5.63
2016-12-31T01:52:45.896Z,-5.56
2016-12-31T01:53:45.631Z,-5.57
2016-12-31T01:54:45.539Z,-5.28
2016-12-31T01:55:45.728Z,-5.27
2016-12-31T01:56:45.595Z,-5.4
2016-12-31T01:57:46.244Z,-5.46
2016-12-31T01:58:46.534Z,-5.42
2016-12-31T01:59:45.950Z,-5.29
2016-12-31T02:00:45.260Z,-5.21
2016-12-31T02:01:46.246Z,-5.03
2016-12-31T02:02:46.148Z,-5
2016-12-31T02:03:45.847Z,-4.98
2016-12-31T02:04:46.229Z,-5.08
2016-12-31T02:05:45.496Z,-5.17
2016-12-31T02:06:45.472Z,-5.25
2016-12-31T02:07:45.874Z,-5.25
2016-12-31T02:08:46.251Z,-5.28
2016-12-31T02:09:46.219Z,-5.35
2016-12-31T02:10:45.642Z,-5.36
2016-12-31T02:11:45.336Z,-5.57
2016-12-31T02:12:45.811Z,-5.67
2016-12-31T02:13:45.478Z,-5.68
2016-12-31T02:14:45.462Z,-5.71
2016-12-31T02:15:45.699Z,-5.51
2016-12-31T02:16:45.993Z,-5.6
2016-12-31T02:17:46.258Z,-5.54
2016-12-31T02:18:46.639Z,-5.47
2016-12-31T02:19:46.218Z,-5.66
2016-12-31T02:20:45.897Z,-5.57
2016-12-31T02:21:46.643Z,-5.78
2016-12-31T02:22:46.130Z,-5.79
2016-12-31T02:23:45.743Z,-5.89
2016-12-31T02:24:46.040Z,-5.93
2016-12-31T02:25:46.139Z,-6
2016-12-31T02:26:46.101Z,-6.11
2016-12-31T02:27:46.224Z,-6.13
2016-12-31T02:28:46.445Z,-6.14
2016-12-31T02:29:46.003Z,-6.26
2016-12-31T02:30:46.550Z,-6.24
2016-12-31T02:31:46.021Z,-6.29
2016-12-31T02:32:46.404Z,-6.35
2016-12-31T02:33:46.919Z,-6.38
2016-12-31T02:34:46.249Z,-6.38
2016-12-31T02:35:45.887Z,-6.24
2016-12-31T02:36:46.390Z,-6.18
2016-12-31T02:37:46.258Z,-6.17
2016-12-31T02:38:46.387Z,-6.17
2016-12-31T02:39:46.040Z,-6.17
2016-12-31T02:40:46.651Z,-6.07
2016-12-31T02:41:45.904Z,-5.92
2016-12-31T02:42:46.854Z,-6.05
2016-12-31T02:43:46.094Z,-5.95
2016-12-31T02:44:47.048Z,-5.84
2016-12-31T02:45:45.610Z,-5.78
2016-12-31T02:46:46.633Z,-5.74
2016-12-31T02:47:46.167Z,-5.57
2016-12-31T02:48:46.608Z,-5.51
2016-12-31T02:49:46.591Z,-5.56
2016-12-31T02:50:45.570Z,-5.45
2016-12-31T02:51:46.980Z,-5.47
2016-12-31T02:52:46.006Z,-5.66
2016-12-31T02:53:46.004Z,-5.75
2016-12-31T02:54:46.091Z,-5.75
2016-12-31T02:55:46.141Z,-5.74
2016-12-31T02:56:46.331Z,-5.85
2016-12-31T02:57:46.634Z,-5.96
2016-12-31T02:58:46.496Z,-5.95
2016-12-31T02:59:45.893Z,-5.95
2016-12-31T03:00:46.585Z,-5.92
2016-12-31T03:01:46.117Z,-6.08
2016-12-31T03:02:46.199Z,-5.95
2016-12-31T03:03:46.687Z,-5.92
2016-12-31T03:04:46.848Z,-5.99
2016-12-31T03:05:46.779Z,-5.95
2016-12-31T03:06:46.570Z,-6.07
2016-12-31T03:07:46.399Z,-6.08
2016-12-31T03:08:46.814Z,-6.03
2016-12-31T03:09:45.931Z,-5.95
2016-12-31T03:10:46.015Z,-6.11
2016-12-31T03:11:46.560Z,-6.1
2016-12-31T03:12:46.370Z,-5.84
2016-12-31T03:13:46.332Z,-5.86
2016-12-31T03:14:46.766Z,-5.92
2016-12-31T03:15:46.343Z,-5.99
2016-12-31T03:16:45.862Z,-6
2016-12-31T03:17:45.877Z,-5.95
2016-12-31T03:18:46.869Z,-5.84
2016-12-31T03:19:46.194Z,-5.92
2016-12-31T03:20:46.491Z,-5.95
2016-12-31T03:21:46.200Z,-5.89
2016-12-31T03:22:46.172Z,-5.96
2016-12-31T03:23:46.467Z,-5.89
2016-12-31T03:24:47.008Z,-5.85
2016-12-31T03:25:46.908Z,-5.81
2016-12-31T03:26:47.006Z,-5.89
2016-12-31T03:27:46.219Z,-5.92
2016-12-31T03:28:46.098Z,-5.89
2016-12-31T03:29:46.993Z,-5.9
2016-12-31T03:30:46.159Z,-6.05
2016-12-31T03:31:46.110Z,-6.03
2016-12-31T03:32:47.021Z,-6.13
2016-12-31T03:33:46.556Z,-6.28
2016-12-31T03:34:47.120Z,-6.32
2016-12-31T03:35:46.521Z,-6.36
2016-12-31T03:36:47.078Z,-6.44
2016-12-31T03:37:46.378Z,-6.61
2016-12-31T03:38:46.499Z,-6.63
2016-12-31T03:39:47.004Z,-6.61
2016-12-31T03:40:46.247Z,-6.68
2016-12-31T03:41:47.542Z,-6.76
2016-12-31T03:42:47.464Z,-6.71
2016-12-31T03:43:46.739Z,-6.68
2016-12-31T03:44:46.797Z,-6.93
2016-12-31T03:45:46.777Z,-6.96
2016-12-31T03:46:46.208Z,-7
2016-12-31T03:47:46.592Z,-7.03
2016-12-31T03:48:46.950Z,-7.03
2016-12-31T03:49:46.955Z,-7.05
2016-12-31T03:50:47.290Z,-7.1
2016-12-31T03:51:47.425Z,-6.96
2016-12-31T03:52:46.610Z,-6.96
2016-12-31T03:53:46.920Z,-7.05
2016-12-31T03:54:46.342Z,-6.94
2016-12-31T03:55:46.698Z,-6.87
2016-12-31T03:56:47.405Z,-6.83
2016-12-31T03:57:47.136Z,-6.94
2016-12-31T03:58:47.976Z,-6.96
2016-12-31T03:59:46.394Z,-6.97
2016-12-31T04:00:47.150Z,-6.99
2016-12-31T04:01:47.436Z,-6.97
2016-12-31T04:02:46.157Z,-7.03
2016-12-31T04:03:47.148Z,-6.97
2016-12-31T04:04:47.040Z,-7.05
2016-12-31T04:05:47.430Z,-6.97
2016-12-31T04:06:46.906Z,-7.03
2016-12-31T04:07:47.039Z,-6.93
2016-12-31T04:08:46.902Z,-6.89
2016-12-31T04:09:47.223Z,-7.03
2016-12-31T04:10:46.660Z,-6.94
2016-12-31T04:11:46.734Z,-7
2016-12-31T04:12:46.713Z,-7.14
2016-12-31T04:13:47.266Z,-7.15
2016-12-31T04:14:46.727Z,-7.29
2016-12-31T04:15:47.635Z,-7.26
2016-12-31T04:16:47.594Z,-7.15
2016-12-31T04:17:47.351Z,-7.13
2016-12-31T04:18:46.804Z,-7
2016-12-31T04:19:46.834Z,-6.94
2016-12-31T04:20:46.653Z,-7
2016-12-31T04:21:46.981Z,-6.96
2016-12-31T04:22:47.207Z,-6.96
2016-12-31T04:23:46.631Z,-6.87
2016-12-31T04:24:47.525Z,-7
2016-12-31T04:25:47.231Z,-6.93
2016-12-31T04:26:47.114Z,-6.97
2016-12-31T04:27:46.861Z,-7.04
2016-12-31T04:28:47.784Z,-7.04
2016-12-31T04:29:48.093Z,-7.05
2016-12-31T04:30:47.525Z,-7.07
2016-12-31T04:31:46.779Z,-7.07
2016-12-31T04:32:46.598Z,-7.05
2016-12-31T04:33:47.544Z,-6.97
2016-12-31T04:34:46.646Z,-7.05
2016-12-31T04:35:47.147Z,-7.1
2016-12-31T04:36:47.003Z,-7.08
2016-12-31T04:37:46.930Z,-7.14
2016-12-31T04:38:47.450Z,-7.13
2016-12-31T04:39:47.132Z,-7.15
2016-12-31T04:40:47.388Z,-7.15
2016-12-31T04:41:47.165Z,-7.18
2016-12-31T04:42:47.540Z,-7.11
2016-12-31T04:43:46.709Z,-7.11
2016-12-31T04:44:47.000Z,-7.1
2016-12-31T04:45:47.511Z,-7
2016-12-31T04:46:47.496Z,-7.13
2016-12-31T04:47:47.167Z,-6.97
2016-12-31T04:48:46.986Z,-7.05
2016-12-31T04:49:47.194Z,-6.96
2016-12-31T04:50:47.743Z,-6.69
2016-12-31T04:51:47.184Z,-6.69
2016-12-31T04:52:46.906Z,-6.81
2016-12-31T04:53:48.065Z,-6.96
2016-12-31T04:54:47.331Z,-6.9
2016-12-31T04:55:47.858Z,-6.93
2016-12-31T04:56:46.886Z,-7.04
2016-12-31T04:57:47.206Z,-6.97
2016-12-31T04:58:47.130Z,-6.99
2016-12-31T04:59:47.416Z,-6.99
2016-12-31T05:00:46.928Z,-7.08
2016-12-31T05:01:47.066Z,-7.14
2016-12-31T05:02:46.906Z,-7.23
2016-12-31T05:03:47.383Z,-7.26
2016-12-31T05:04:47.333Z,-7.32
2016-12-31T05:05:47.491Z,-7.15
2016-12-31T05:06:48.033Z,-7.21
2016-12-31T05:07:47.663Z,-7.29
2016-12-31T05:08:46.849Z,-7.35
2016-12-31T05:09:47.463Z,-7.43
2016-12-31T05:10:47.456Z,-7.42
2016-12-31T05:11:47.200Z,-7.26
2016-12-31T05:12:47.783Z,-7.47
2016-12-31T05:13:47.773Z,-7.38
2016-12-31T05:14:47.501Z,-7.53
2016-12-31T05:15:48.422Z,-7.52
2016-12-31T05:16:47.635Z,-7.56
2016-12-31T05:17:48.396Z,-7.56
2016-12-31T05:18:47.705Z,-7.42
2016-12-31T05:19:48.175Z,-7.32
2016-12-31T05:20:48.216Z,-7.22
2016-12-31T05:21:48.258Z,-7.25
2016-12-31T05:22:49.029Z,-7.29
2016-12-31T05:23:49.092Z,-7.15
2016-12-31T05:24:48.994Z,-7.15
2016-12-31T05:25:49.202Z,-7.23
2016-12-31T05:26:49.355Z,-7.11
2016-12-31T05:27:48.817Z,-7.08
2016-12-31T05:28:48.550Z,-7.11
2016-12-31T05:29:48.644Z,-7.04
2016-12-31T05:30:49.864Z,-6.97
2016-12-31T05:31:49.639Z,-7.04
2016-12-31T05:32:48.611Z,-6.99
2016-12-31T05:33:48.653Z,-7.04
2016-12-31T05:34:49.785Z,-7
2016-12-31T05:35:49.114Z,-7
2016-12-31T05:36:49.521Z,-7.08
2016-12-31T05:37:49.549Z,-7.14
2016-12-31T05:38:49.348Z,-7.15
2016-12-31T05:39:48.944Z,-7.25
2016-12-31T05:40:49.106Z,-7.25
2016-12-31T05:41:48.479Z,-7.31
2016-12-31T05:42:50.057Z,-7.17
2016-12-31T05:43:48.874Z,-7.15
2016-12-31T05:44:49.747Z,-6.97
2016-12-31T05:45:50.271Z,-6.97
2016-12-31T05:46:49.506Z,-6.96
2016-12-31T05:47:49.531Z,-6.86
2016-12-31T05:48:50.396Z,-6.9
2016-12-31T05:49:48.397Z,-6.79
2016-12-31T05:50:49.293Z,-6.83
2016-12-31T05:51:49.201Z,-6.78
2016-12-31T05:52:50.082Z,-6.65
2016-12-31T05:53:49.029Z,-6.76
2016-12-31T05:54:50.633Z,-6.9
2016-12-31T05:55:48.342Z,-6.94
2016-12-31T05:56:49.118Z,-7.04
2016-12-31T05:57:48.914Z,-7.1
2016-12-31T05:58:50.382Z,-7.17
2016-12-31T05:59:49.180Z,-7.03
2016-12-31T06:00:49.202Z,-7.14
2016-12-31T06:01:52.641Z,-7.14
2016-12-31T06:02:49.592Z,-7.04
2016-12-31T06:03:49.608Z,-7.05
2016-12-31T06:04:49.516Z,-7.13
2016-12-31T06:05:49.620Z,-7.17
2016-12-31T06:06:48.419Z,-7.14
2016-12-31T06:07:49.960Z,-7.13
2016-12-31T06:08:49.308Z,-7.15
2016-12-31T06:09:50.260Z,-7.11
2016-12-31T06:10:48.608Z,-7.05
2016-12-31T06:11:49.324Z,-7.04
2016-12-31T06:12:50.448Z,-7.03
2016-12-31T06:13:48.910Z,-6.99
2016-12-31T06:14:49.809Z,-7.17
2016-12-31T06:15:50.035Z,-7.25
2016-12-31T06:16:48.605Z,-7.14
2016-12-31T06:17:49.521Z,-7.05
2016-12-31T06:18:49.611Z,-7.03
2016-12-31T06:19:49.248Z,-6.96
2016-12-31T06:20:48.413Z,-6.96
2016-12-31T06:21:51.144Z,-6.92
2016-12-31T06:22:48.422Z,-6.79
2016-12-31T06:23:49.643Z,-6.84
2016-12-31T06:24:49.121Z,-6.89
2016-12-31T06:25:48.692Z,-6.89
2016-12-31T06:26:49.343Z,-6.83
2016-12-31T06:27:51.037Z,-6.79
2016-12-31T06:28:48.698Z,-6.75
2016-12-31T06:29:49.862Z,-6.86
2016-12-31T06:30:48.685Z,-6.6
2016-12-31T06:31:48.960Z,-6.42
2016-12-31T06:32:49.143Z,-6.41
2016-12-31T06:33:48.995Z,-6.23
2016-12-31T06:34:48.906Z,-5.85
2016-12-31T06:35:49.830Z,-5.49
2016-12-31T06:36:48.989Z,-5.53
2016-12-31T06:37:49.568Z,-5.46
2016-12-31T06:38:49.163Z,-5.49
2016-12-31T06:39:49.435Z,-5.35
2016-12-31T06:40:48.488Z,-5.13
2016-12-31T06:41:48.937Z,-5.05
2016-12-31T06:42:48.122Z,-4.95
2016-12-31T06:43:48.417Z,-4.88
2016-12-31T06:44:48.069Z,-4.73
2016-12-31T06:45:48.211Z,-4.75
2016-12-31T06:46:50.191Z,-4.61
2016-12-31T06:47:49.281Z,-4.57
2016-12-31T06:48:49.541Z,-4.5
2016-12-31T06:49:48.039Z,-4.38
2016-12-31T06:50:50.711Z,-4.41
2016-12-31T06:51:50.146Z,-4.27
2016-12-31T06:52:48.458Z,-4.2
2016-12-31T06:53:48.886Z,-4.17
2016-12-31T06:54:49.433Z,-4.09
2016-12-31T06:55:49.204Z,-4.02
2016-12-31T06:56:49.672Z,-4.09
2016-12-31T06:57:49.589Z,-3.99
2016-12-31T06:58:48.810Z,-3.99
2016-12-31T06:59:49.495Z,-4.1
2016-12-31T07:00:48.588Z,-4.02
2016-12-31T07:01:49.300Z,-3.91
2016-12-31T07:02:49.733Z,-3.91
2016-12-31T07:03:48.635Z,-3.92
2016-12-31T07:04:50.267Z,-3.78
2016-12-31T07:06:49.244Z,-3.82
2016-12-31T07:07:49.097Z,-3.83
2016-12-31T07:08:50.172Z,-3.83
2016-12-31T07:09:49.613Z,-3.88
2016-12-31T07:10:48.923Z,-3.88
2016-12-31T07:11:49.285Z,-3.78
2016-12-31T07:12:48.662Z,-3.67
2016-12-31T07:13:48.903Z,-3.75
2016-12-31T07:14:48.715Z,-3.58
2016-12-31T07:15:49.453Z,-3.63
2016-12-31T07:16:48.350Z,-3.61
2016-12-31T07:17:49.575Z,-3.61
2016-12-31T07:18:49.443Z,-3.58
2016-12-31T07:19:49.476Z,-3.58
2016-12-31T07:20:48.752Z,-3.54
2016-12-31T07:21:48.621Z,-3.48
2016-12-31T07:22:48.951Z,-3.4
2016-12-31T07:23:49.203Z,-3.44
2016-12-31T07:24:48.560Z,-3.4
2016-12-31T07:25:48.801Z,-3.46
2016-12-31T07:26:49.182Z,-3.41
2016-12-31T07:27:48.468Z,-3.46
2016-12-31T07:28:49.439Z,-3.49
2016-12-31T07:29:48.404Z,-3.44
2016-12-31T07:30:48.443Z,-3.38
2016-12-31T07:31:49.063Z,-3.4
2016-12-31T07:32:49.996Z,-3.45
2016-12-31T07:33:49.056Z,-3.38
2016-12-31T07:34:48.957Z,-3.38
2016-12-31T07:35:49.183Z,-3.37
2016-12-31T07:36:49.020Z,-3.38
2016-12-31T07:37:48.938Z,-3.27
2016-12-31T07:38:49.052Z,-3.33
2016-12-31T07:39:48.753Z,-3.3
2016-12-31T07:40:49.081Z,-3.34
2016-12-31T07:41:49.103Z,-3.28
2016-12-31T07:42:49.279Z,-3.35
2016-12-31T07:43:48.412Z,-3.33
2016-12-31T07:44:50.775Z,-3.33
2016-12-31T07:45:48.523Z,-3.28
2016-12-31T07:46:49.738Z,-3.25
2016-12-31T07:47:48.917Z,-3.31
2016-12-31T07:48:49.017Z,-3.31
2016-12-31T07:49:48.780Z,-3.27
2016-12-31T07:50:49.894Z,-3.31
2016-12-31T07:51:50.166Z,-3.31
2016-12-31T07:52:49.158Z,-3.23
2016-12-31T07:53:49.530Z,-3.23
2016-12-31T07:54:49.526Z,-3.3
2016-12-31T07:55:49.280Z,-3.27
2016-12-31T07:56:50.129Z,-3.23
2016-12-31T07:57:50.048Z,-3.27
2016-12-31T07:58:48.928Z,-3.27
2016-12-31T07:59:48.749Z,-3.23
2016-12-31T08:00:49.466Z,-3.28
2016-12-31T08:01:50.079Z,-3.3
2016-12-31T08:02:49.958Z,-3.28
2016-12-31T08:03:49.642Z,-3.27
2016-12-31T08:04:49.263Z,-3.13
2016-12-31T08:05:48.751Z,-3.15
2016-12-31T08:06:49.014Z,-3.15
2016-12-31T08:07:49.408Z,-3.22
2016-12-31T08:08:49.517Z,-3.25
2016-12-31T08:09:49.300Z,-3.27
2016-12-31T08:10:49.568Z,-3.13
2016-12-31T08:11:50.121Z,-3.13
2016-12-31T08:12:49.195Z,-3.19
2016-12-31T08:13:49.726Z,-3.16
2016-12-31T08:14:49.543Z,-3.07
2016-12-31T08:15:50.275Z,-3.16
2016-12-31T08:16:48.920Z,-3.17
2016-12-31T08:17:48.822Z,-3.07
2016-12-31T08:18:48.724Z,-3.09
2016-12-31T08:19:48.829Z,-3.06
2016-12-31T08:20:49.382Z,-3.09
2016-12-31T08:21:48.828Z,-3.16
2016-12-31T08:22:48.789Z,-3.1
2016-12-31T08:23:49.399Z,-3.02
2016-12-31T08:24:48.967Z,-3.04
2016-12-31T08:25:49.880Z,-3.02
2016-12-31T08:26:49.020Z,-3.09
2016-12-31T08:27:49.233Z,-3.1
2016-12-31T08:28:49.135Z,-3.15
2016-12-31T08:29:48.734Z,-3.12
2016-12-31T08:30:49.770Z,-3.17
2016-12-31T08:31:48.910Z,-3.02
2016-12-31T08:32:48.803Z,-2.97
2016-12-31T08:33:49.090Z,-3.1
2016-12-31T08:34:49.647Z,-3.01
2016-12-31T08:35:49.213Z,-2.99
2016-12-31T08:36:49.587Z,-3.04
2016-12-31T08:37:51.033Z,-2.94
2016-12-31T08:38:49.392Z,-3.02
2016-12-31T08:39:49.916Z,-2.98
2016-12-31T08:40:49.799Z,-2.98
2016-12-31T08:41:49.725Z,-2.98
2016-12-31T08:42:49.389Z,-2.92
2016-12-31T08:43:49.351Z,-2.92
2016-12-31T08:44:48.976Z,-2.88
2016-12-31T08:45:49.727Z,-2.84
2016-12-31T08:46:49.260Z,-2.83
2016-12-31T08:47:49.679Z,-2.8
2016-12-31T08:48:49.319Z,-2.8
2016-12-31T08:49:48.972Z,-2.88
2016-12-31T08:50:49.407Z,-2.78
2016-12-31T08:51:49.429Z,-2.83
2016-12-31T08:52:49.254Z,-2.83
2016-12-31T08:53:49.459Z,-2.84
2016-12-31T08:54:49.719Z,-2.8
2016-12-31T08:55:49.411Z,-2.83
2016-12-31T08:56:50.168Z,-2.74
2016-12-31T08:57:49.555Z,-2.66
2016-12-31T08:58:49.970Z,-2.66
2016-12-31T08:59:49.529Z,-2.58
2016-12-31T09:00:49.103Z,-2.58
2016-12-31T09:01:49.803Z,-2.6
2016-12-31T09:02:49.706Z,-2.5
2016-12-31T09:03:49.172Z,-2.58
2016-12-31T09:04:49.562Z,-2.5
2016-12-31T09:05:49.860Z,-2.37
2016-12-31T09:06:49.732Z,-2.41
2016-12-31T09:07:49.531Z,-2.34
2016-12-31T09:08:49.258Z,-2.4
2016-12-31T09:09:49.220Z,-2.25
2016-12-31T09:10:49.727Z,-2.37
2016-12-31T09:11:49.398Z,-2.41
2016-12-31T09:12:49.283Z,-2.37
2016-12-31T09:13:49.720Z,-2.53
2016-12-31T09:14:49.291Z,-2.59
2016-12-31T09:15:50.002Z,-2.63
2016-12-31T09:16:49.478Z,-2.6
2016-12-31T09:17:49.599Z,-2.69
2016-12-31T09:18:49.854Z,-2.52
2016-12-31T09:19:49.335Z,-2.58
2016-12-31T09:20:50.131Z,-2.47
2016-12-31T09:21:50.033Z,-2.41
2016-12-31T09:22:49.552Z,-2.34
2016-12-31T09:23:50.190Z,-2.13
2016-12-31T09:24:50.450Z,-2.04
2016-12-31T09:25:49.951Z,-2.04
2016-12-31T09:26:50.238Z,-1.86
2016-12-31T09:27:49.511Z,-1.87
2016-12-31T09:28:49.884Z,-1.8
2016-12-31T09:29:49.506Z,-1.87
2016-12-31T09:30:50.204Z,-1.9
2016-12-31T09:31:50.500Z,-1.74
2016-12-31T09:32:49.803Z,-1.53
2016-12-31T09:33:50.991Z,-1.46
2016-12-31T09:34:50.147Z,-1.53
2016-12-31T09:35:50.171Z,-1.69
2016-12-31T09:36:50.013Z,-1.59
2016-12-31T09:37:49.969Z,-1.61
2016-12-31T09:38:50.250Z,-1.53
2016-12-31T09:39:49.918Z,-1.59
2016-12-31T09:40:50.142Z,-1.47
2016-12-31T09:41:50.591Z,-1.51
2016-12-31T09:42:49.750Z,-1.59
2016-12-31T09:43:50.594Z,-1.61
2016-12-31T09:44:49.856Z,-1.58
2016-12-31T09:45:50.134Z,-1.54
2016-12-31T09:46:49.948Z,-1.4
2016-12-31T09:47:51.135Z,-1.32
2016-12-31T09:48:49.952Z,-1.22
2016-12-31T09:49:50.130Z,-1.44
2016-12-31T09:50:50.834Z,-1.41
2016-12-31T09:51:49.808Z,-1.32
2016-12-31T09:52:50.373Z,-1.33
2016-12-31T09:53:50.996Z,-1.32
2016-12-31T09:54:49.792Z,-1.17
2016-12-31T09:55:49.703Z,-1.25
2016-12-31T09:56:50.753Z,-1.27
2016-12-31T09:57:50.221Z,-1.25
2016-12-31T09:58:50.618Z,-1.2
2016-12-31T09:59:50.483Z,-1.11
2016-12-31T10:00:49.969Z,-1.23
2016-12-31T10:01:49.934Z,-1.29
2016-12-31T10:02:49.785Z,-1.23
2016-12-31T10:03:50.837Z,-1.22
2016-12-31T10:04:50.213Z,-1.12
2016-12-31T10:05:50.130Z,-0.94
2016-12-31T10:06:49.878Z,-1.09
2016-12-31T10:07:50.448Z,-1.02
2016-12-31T10:08:49.903Z,-1.08
2016-12-31T10:09:50.757Z,-1.11
2016-12-31T10:10:50.622Z,-1.05
2016-12-31T10:11:50.092Z,-1.09
2016-12-31T10:12:49.912Z,-1.08
2016-12-31T10:13:50.013Z,-1.2
2016-12-31T10:14:50.595Z,-1.22
2016-12-31T10:15:50.925Z,-1.2
2016-12-31T10:16:50.016Z,-1.22
2016-12-31T10:17:50.767Z,-1.19
2016-12-31T10:18:50.607Z,-0.99
2016-12-31T10:19:51.508Z,-1.04
2016-12-31T10:20:50.531Z,-0.99
2016-12-31T10:21:50.046Z,-1.04
2016-12-31T10:22:50.214Z,-1.08
2016-12-31T10:23:50.513Z,-1.14
2016-12-31T10:24:51.321Z,-1.25
2016-12-31T10:25:50.838Z,-1.15
2016-12-31T10:26:50.250Z,-1.07
2016-12-31T10:27:50.476Z,-1.01
2016-12-31T10:28:50.388Z,-1.01
2016-12-31T10:29:51.430Z,-1.07
2016-12-31T10:30:51.163Z,-1.05
2016-12-31T10:31:50.421Z,-1.15
2016-12-31T10:32:50.655Z,-1.25
2016-12-31T10:33:50.370Z,-1.11
2016-12-31T10:34:50.129Z,-1.08
2016-12-31T10:35:51.191Z,-0.96
2016-12-31T10:36:52.022Z,-1.08
2016-12-31T10:37:50.579Z,-1.11
2016-12-31T10:38:50.580Z,-1.05
2016-12-31T10:39:50.862Z,-1.09
2016-12-31T10:40:50.708Z,-1.05
2016-12-31T10:41:50.495Z,-1.08
2016-12-31T10:42:50.490Z,-1.05
2016-12-31T10:43:50.727Z,-1.04
2016-12-31T10:44:51.231Z,-0.97
2016-12-31T10:45:50.820Z,-1.05
2016-12-31T10:46:51.566Z,-0.94
2016-12-31T10:47:51.366Z,-0.89
2016-12-31T10:48:51.409Z,-0.85
2016-12-31T10:49:51.456Z,-0.85
2016-12-31T10:50:50.352Z,-0.86
2016-12-31T10:51:51.333Z,-0.9
2016-12-31T10:52:50.663Z,-0.91
2016-12-31T10:53:50.746Z,-0.86
2016-12-31T10:54:50.550Z,-0.86
2016-12-31T10:55:50.540Z,-0.83
2016-12-31T10:56:50.356Z,-0.85
2016-12-31T10:57:51.157Z,-0.89
2016-12-31T10:58:50.871Z,-0.82
2016-12-31T10:59:51.134Z,-0.77
2016-12-31T11:00:50.518Z,-0.8
2016-12-31T11:01:51.141Z,-0.74
2016-12-31T11:02:50.969Z,-0.74
2016-12-31T11:03:50.872Z,-0.78
2016-12-31T11:04:50.493Z,-0.7
2016-12-31T11:05:51.104Z,-0.78
2016-12-31T11:06:51.563Z,-0.74
2016-12-31T11:07:51.075Z,-0.77
2016-12-31T11:08:50.806Z,-0.61
2016-12-31T11:09:51.589Z,-0.65
2016-12-31T11:10:51.182Z,-0.54
2016-12-31T11:11:50.850Z,-0.54
2016-12-31T11:12:50.918Z,-0.39
2016-12-31T11:13:51.718Z,-0.31
2016-12-31T11:14:50.940Z,-0.21
2016-12-31T11:15:51.294Z,-0.25
2016-12-31T11:16:50.934Z,-0.32
2016-12-31T11:17:50.841Z,-0.34
2016-12-31T11:18:50.703Z,-0.17
2016-12-31T11:19:51.412Z,-0.17
2016-12-31T11:20:51.138Z,-0.08
2016-12-31T11:21:51.849Z,0.03
2016-12-31T11:22:50.661Z,-0.07
2016-12-31T11:23:51.868Z,-0.1
2016-12-31T11:24:52.023Z,-0.1
2016-12-31T11:25:51.072Z,-0.1
2016-12-31T11:26:51.056Z,-0.02
2016-12-31T11:27:51.022Z,-0.08
2016-12-31T11:28:51.063Z,-0.08
2016-12-31T11:29:51.393Z,-0.11
2016-12-31T11:30:51.357Z,0
2016-12-31T11:31:51.158Z,-0.06
2016-12-31T11:32:51.621Z,0
2016-12-31T11:33:51.818Z,0
2016-12-31T11:34:50.947Z,-0.02
2016-12-31T11:35:51.151Z,-0.02
2016-12-31T11:36:51.443Z,0.11
2016-12-31T11:37:50.974Z,0.1
2016-12-31T11:38:51.750Z,0.12
2016-12-31T11:39:51.234Z,0.15
2016-12-31T11:40:51.670Z,0.11
2016-12-31T11:41:51.451Z,0.11
2016-12-31T11:42:50.851Z,0.16
2016-12-31T11:43:51.116Z,0.25
2016-12-31T11:44:51.639Z,0.12
2016-12-31T11:45:51.349Z,0.25
2016-12-31T11:46:51.342Z,0.36
2016-12-31T11:47:51.029Z,0.29
2016-12-31T11:48:52.010Z,0.26
2016-12-31T11:49:51.714Z,0.36
2016-12-31T11:50:52.003Z,0.25
2016-12-31T11:51:51.613Z,0.47
2016-12-31T11:52:50.991Z,0.22
2016-12-31T11:53:51.746Z,0.4
2016-12-31T11:54:51.187Z,0.39
2016-12-31T11:55:51.853Z,0.29
2016-12-31T11:56:51.229Z,0.4
2016-12-31T11:57:51.432Z,0.26
2016-12-31T11:58:51.943Z,0.26
2016-12-31T11:59:51.318Z,0.36
2016-12-31T12:00:51.754Z,0.49
2016-12-31T12:01:51.107Z,0.43
2016-12-31T12:02:51.490Z,0.4
2016-12-31T12:03:52.235Z,0.49
2016-12-31T12:04:51.375Z,0.44
2016-12-31T12:05:51.546Z,0.44
2016-12-31T12:06:52.302Z,0.41
2016-12-31T12:07:51.379Z,0.44
2016-12-31T12:08:51.640Z,0.66
2016-12-31T12:09:52.581Z,0.46
2016-12-31T12:10:51.629Z,0.76
2016-12-31T12:11:52.397Z,0.73
2016-12-31T12:12:51.189Z,0.83
2016-12-31T12:13:51.340Z,0.84
2016-12-31T12:14:51.753Z,0.77
2016-12-31T12:15:51.581Z,0.68
2016-12-31T12:16:51.627Z,0.62
2016-12-31T12:17:51.330Z,0.81
2016-12-31T12:18:51.840Z,0.91
2016-12-31T12:19:52.344Z,0.78
2016-12-31T12:20:51.604Z,0.77
2016-12-31T12:21:52.170Z,0.8
2016-12-31T12:22:51.558Z,0.73
2016-12-31T12:23:52.197Z,0.84
2016-12-31T12:24:52.095Z,0.91
2016-12-31T12:25:52.559Z,0.76
2016-12-31T12:26:51.747Z,0.63
2016-12-31T12:27:51.477Z,0.6
2016-12-31T12:28:52.187Z,0.62
2016-12-31T12:29:52.001Z,0.6
2016-12-31T12:30:52.079Z,0.56
2016-12-31T12:31:51.988Z,0.58
2016-12-31T12:32:52.332Z,0.63
2016-12-31T12:33:51.935Z,0.63
2016-12-31T12:34:51.908Z,0.68
2016-12-31T12:35:51.906Z,0.83
2016-12-31T12:36:52.064Z,0.84
2016-12-31T12:37:51.975Z,0.83
2016-12-31T12:38:53.407Z,0.92
2016-12-31T12:39:51.857Z,1.02
2016-12-31T12:40:51.783Z,1.01
2016-12-31T12:41:52.217Z,1.16
2016-12-31T12:42:52.740Z,1.17
2016-12-31T12:43:51.949Z,1.19
2016-12-31T12:44:52.440Z,1.22
2016-12-31T12:45:52.899Z,1.06
2016-12-31T12:46:52.364Z,1.13
2016-12-31T12:47:53.118Z,1.01
2016-12-31T12:48:52.576Z,1.06
2016-12-31T12:49:53.245Z,1.02
2016-12-31T12:50:53.260Z,1.05
2016-12-31T12:51:52.764Z,1.17
2016-12-31T12:52:52.034Z,1.28
2016-12-31T12:53:52.559Z,1.19
2016-12-31T12:54:52.454Z,1.12
2016-12-31T12:55:52.347Z,1.05
2016-12-31T12:56:53.008Z,1.14
2016-12-31T12:57:52.282Z,1.28
2016-12-31T12:58:52.681Z,1.16
2016-12-31T12:59:52.336Z,1.3
2016-12-31T13:00:52.352Z,1.55